APL New Jersey — A8NM6 — position and weather

sailwx.info

Track history (hours):
 
Tides and Currents Weather Stations Pressure Air Temp Water Temp Dewpoint Dewpoint Depression Visibility Wind Speed Wind Dir Waves Ship Positions

APL New Jersey

Last reported at 2015-Apr-28 19:13 UTC. Time now 2015-May-05 12:15 UTC.
Position N 23°29' E 119°51'.

Length 293 m; draft 10.5 m.

Type: Cargo ship. MMSI: 636013522.

Date/timePositionNaut miles runAvg speedWind from/ knotsBaromVisibWave heightAir tempDewpointWater temp
2015-Apr-28 19:13N 23°29' E 119°51'5217.6
2015-Apr-28 16:16N 22°38' E 120°03'1115.6
2015-Apr-28 15:33N 22°33' E 120°13'6 1.8
2015-Apr-28 12:22N 22°34' E 120°19'0 0.0
2015-Apr-28 11:28N 22°34' E 120°19'0 0.0
2015-Apr-28 10:22N 22°34' E 120°19'0 0.0
2015-Apr-28 09:04N 22°34' E 120°19'0 0.0
2015-Apr-28 08:28N 22°34' E 120°19'0 0.0
2015-Apr-28 07:22N 22°34' E 120°19'0 0.0
2015-Apr-28 05:11N 22°34' E 120°19'0 0.0
2015-Apr-28 04:10N 22°34' E 120°19'0 0.0
2015-Apr-28 03:28N 22°34' E 120°19'4 4.5
2015-Apr-28 02:33N 22°32' E 120°15'8 7.8
2015-Apr-28 01:34N 22°31' E 120°07'1 0.9
2015-Apr-28 00:33N 22°32' E 120°07'8 7.8
2015-Apr-27 23:33N 22°31' E 119°59'9 9.3
2015-Apr-27 22:34N 22°30' E 119°49'9 9.1
2015-Apr-27 21:33N 22°29' E 119°39'11410.2
2015-Apr-27 10:18N 22°21' E 117°36'810.8
2015-Apr-27 09:33N 22°22' E 117°27'1410.5
2015-Apr-27 08:16N 22°22' E 117°13'14610.5
2015-Apr-26 18:24N 22°11' E 114°35'910.4
2015-Apr-26 17:31N 22°09' E 114°25'10 9.1
2015-Apr-26 16:26N 22°08' E 114°15'9 7.7
2015-Apr-26 15:15N 22°14' E 114°08'8 9.8
2015-Apr-26 14:23N 22°21' E 114°03'910.5
2015-Apr-26 13:33N 22°23' E 113°53'5 4.5
2015-Apr-26 12:33N 22°28' E 113°53'0 0.0
2015-Apr-26 04:14N 22°28' E 113°53'3 4.8
2015-Apr-26 03:33N 22°25' E 113°53'9 9.1
2015-Apr-26 02:33N 22°21' E 114°03'1111.0
2015-Apr-26 01:33N 22°13' E 114°10'6 6.1
2015-Apr-26 00:33N 22°09' E 114°15'1111.5
2015-Apr-25 23:33N 22°08' E 114°27'1412.5
2015-Apr-25 22:28N 22°03' E 114°41'  
2015-Apr-22 12:33N 01°16' E 104°09'1515.3
2015-Apr-22 11:33N 01°13' E 103°54'5 4.8
2015-Apr-22 10:33N 01°16' E 103°50'0 0.0
2015-Apr-22 09:30N 01°16' E 103°50'0 0.0
2015-Apr-22 08:30N 01°16' E 103°50'0 0.0
2015-Apr-22 07:33N 01°16' E 103°50'0 0.0
2015-Apr-22 06:30N 01°16' E 103°50'0 0.0
2015-Apr-22 05:30N 01°16' E 103°50'0 0.0
2015-Apr-22 04:33N 01°16' E 103°50'0 0.0
2015-Apr-22 03:30N 01°16' E 103°50'0 0.0
2015-Apr-22 02:30N 01°16' E 103°50'0 0.0
2015-Apr-22 01:27N 01°16' E 103°50'0 0.0
2015-Apr-22 00:30N 01°16' E 103°50'0 0.0
2015-Apr-21 23:30N 01°16' E 103°50'0 0.0
2015-Apr-21 22:30N 01°16' E 103°50'0 0.0
2015-Apr-21 21:33N 01°16' E 103°50'0 0.0
2015-Apr-21 20:33N 01°16' E 103°50'0 0.0
2015-Apr-21 19:33N 01°16' E 103°50'0 0.0
2015-Apr-21 18:33N 01°16' E 103°50'0 0.0
2015-Apr-21 17:30N 01°16' E 103°50'0 0.0
2015-Apr-21 16:33N 01°16' E 103°50'3 3.1
2015-Apr-21 15:33N 01°14' E 103°53'0 0.2
2015-Apr-21 14:27N 01°14' E 103°53'0 0.1
2015-Apr-21 13:33N 01°14' E 103°53'0 0.0
2015-Apr-21 12:33N 01°14' E 103°53'0 0.1
2015-Apr-21 11:27N 01°14' E 103°53'0 0.1
2015-Apr-21 10:33N 01°14' E 103°53'0 0.1
2015-Apr-21 09:27N 01°14' E 103°53'0 0.1
2015-Apr-21 08:33N 01°14' E 103°53'3 2.9
2015-Apr-21 07:33N 01°16' E 103°51'1 0.5
2015-Apr-21 06:33N 01°16' E 103°50'0 0.0
2015-Apr-21 05:33N 01°16' E 103°50'0 0.0
2015-Apr-21 04:33N 01°16' E 103°50'0 0.0
2015-Apr-21 03:33N 01°16' E 103°50'0 0.0
2015-Apr-21 02:33N 01°16' E 103°50'0 0.0
2015-Apr-21 01:30N 01°16' E 103°50'0 0.0
2015-Apr-21 00:33N 01°16' E 103°50'0 0.0
2015-Apr-20 23:30N 01°16' E 103°50'0 0.0
2015-Apr-20 22:33N 01°16' E 103°50'0 0.0
2015-Apr-20 21:33N 01°16' E 103°50'0 0.0
2015-Apr-20 20:30N 01°16' E 103°50'0 0.0
2015-Apr-20 19:33N 01°16' E 103°50'0 0.0
2015-Apr-20 18:33N 01°16' E 103°50'0 0.0
2015-Apr-20 17:33N 01°16' E 103°50'0 0.0
2015-Apr-20 16:30N 01°16' E 103°50'0 0.0
2015-Apr-20 15:30N 01°16' E 103°50'0 0.0
2015-Apr-20 14:33N 01°16' E 103°50'0 0.0
2015-Apr-20 13:33N 01°16' E 103°50'0 0.0
2015-Apr-20 12:33N 01°16' E 103°50'0 0.0
2015-Apr-20 11:33N 01°16' E 103°50'2 1.9
2015-Apr-20 10:33N 01°15' E 103°52'5 5.1
2015-Apr-20 09:33N 01°15' E 103°57'10 9.5
2015-Apr-20 08:32N 01°16' E 104°06'  
Track history (hours):
 
Tides and Currents Weather Stations Pressure Air Temp Water Temp Dewpoint Dewpoint Depression Visibility Wind Speed Wind Dir Waves Ship Positions

APL New Jersey

Last reported at 2015-Apr-28 19:13 UTC. Time now 2015-May-05 12:15 UTC.
Position N 23°29' E 119°51'.

Length 293 m; draft 10.5 m.

Type: Cargo ship. MMSI: 636013522.

Date/timePositionNaut miles runAvg speedWind from/ knotsBaromVisibWave heightAir tempDewpointWater temp
2015-Apr-28 19:13N 23°29' E 119°51'5217.6
2015-Apr-28 16:16N 22°38' E 120°03'1115.6
2015-Apr-28 15:33N 22°33' E 120°13'6 1.8
2015-Apr-28 12:22N 22°34' E 120°19'0 0.0
2015-Apr-28 11:28N 22°34' E 120°19'0 0.0
2015-Apr-28 10:22N 22°34' E 120°19'0 0.0
2015-Apr-28 09:04N 22°34' E 120°19'0 0.0
2015-Apr-28 08:28N 22°34' E 120°19'0 0.0
2015-Apr-28 07:22N 22°34' E 120°19'0 0.0
2015-Apr-28 05:11N 22°34' E 120°19'0 0.0
2015-Apr-28 04:10N 22°34' E 120°19'0 0.0
2015-Apr-28 03:28N 22°34' E 120°19'4 4.5
2015-Apr-28 02:33N 22°32' E 120°15'8 7.8
2015-Apr-28 01:34N 22°31' E 120°07'1 0.9
2015-Apr-28 00:33N 22°32' E 120°07'8 7.8
2015-Apr-27 23:33N 22°31' E 119°59'9 9.3
2015-Apr-27 22:34N 22°30' E 119°49'9 9.1
2015-Apr-27 21:33N 22°29' E 119°39'11410.2
2015-Apr-27 10:18N 22°21' E 117°36'810.8
2015-Apr-27 09:33N 22°22' E 117°27'1410.5
2015-Apr-27 08:16N 22°22' E 117°13'14610.5
2015-Apr-26 18:24N 22°11' E 114°35'910.4
2015-Apr-26 17:31N 22°09' E 114°25'10 9.1
2015-Apr-26 16:26N 22°08' E 114°15'9 7.7
2015-Apr-26 15:15N 22°14' E 114°08'8 9.8
2015-Apr-26 14:23N 22°21' E 114°03'910.5
2015-Apr-26 13:33N 22°23' E 113°53'5 4.5
2015-Apr-26 12:33N 22°28' E 113°53'0 0.0
2015-Apr-26 04:14N 22°28' E 113°53'3 4.8
2015-Apr-26 03:33N 22°25' E 113°53'9 9.1
2015-Apr-26 02:33N 22°21' E 114°03'1111.0
2015-Apr-26 01:33N 22°13' E 114°10'6 6.1
2015-Apr-26 00:33N 22°09' E 114°15'1111.5
2015-Apr-25 23:33N 22°08' E 114°27'1412.5
2015-Apr-25 22:28N 22°03' E 114°41'  
2015-Apr-22 12:33N 01°16' E 104°09'1515.3
2015-Apr-22 11:33N 01°13' E 103°54'5 4.8
2015-Apr-22 10:33N 01°16' E 103°50'0 0.0
2015-Apr-22 09:30N 01°16' E 103°50'0 0.0
2015-Apr-22 08:30N 01°16' E 103°50'0 0.0
2015-Apr-22 07:33N 01°16' E 103°50'0 0.0
2015-Apr-22 06:30N 01°16' E 103°50'0 0.0
2015-Apr-22 05:30N 01°16' E 103°50'0 0.0
2015-Apr-22 04:33N 01°16' E 103°50'0 0.0
2015-Apr-22 03:30N 01°16' E 103°50'0 0.0
2015-Apr-22 02:30N 01°16' E 103°50'0 0.0
2015-Apr-22 01:27N 01°16' E 103°50'0 0.0
2015-Apr-22 00:30N 01°16' E 103°50'0 0.0
2015-Apr-21 23:30N 01°16' E 103°50'0 0.0
2015-Apr-21 22:30N 01°16' E 103°50'0 0.0
2015-Apr-21 21:33N 01°16' E 103°50'0 0.0
2015-Apr-21 20:33N 01°16' E 103°50'0 0.0
2015-Apr-21 19:33N 01°16' E 103°50'0 0.0
2015-Apr-21 18:33N 01°16' E 103°50'0 0.0
2015-Apr-21 17:30N 01°16' E 103°50'0 0.0
2015-Apr-21 16:33N 01°16' E 103°50'3 3.1
2015-Apr-21 15:33N 01°14' E 103°53'0 0.2
2015-Apr-21 14:27N 01°14' E 103°53'0 0.1
2015-Apr-21 13:33N 01°14' E 103°53'0 0.0
2015-Apr-21 12:33N 01°14' E 103°53'0 0.1
2015-Apr-21 11:27N 01°14' E 103°53'0 0.1
2015-Apr-21 10:33N 01°14' E 103°53'0 0.1
2015-Apr-21 09:27N 01°14' E 103°53'0 0.1
2015-Apr-21 08:33N 01°14' E 103°53'3 2.9
2015-Apr-21 07:33N 01°16' E 103°51'1 0.5
2015-Apr-21 06:33N 01°16' E 103°50'0 0.0
2015-Apr-21 05:33N 01°16' E 103°50'0 0.0
2015-Apr-21 04:33N 01°16' E 103°50'0 0.0
2015-Apr-21 03:33N 01°16' E 103°50'0 0.0
2015-Apr-21 02:33N 01°16' E 103°50'0 0.0
2015-Apr-21 01:30N 01°16' E 103°50'0 0.0
2015-Apr-21 00:33N 01°16' E 103°50'0 0.0
2015-Apr-20 23:30N 01°16' E 103°50'0 0.0
2015-Apr-20 22:33N 01°16' E 103°50'0 0.0
2015-Apr-20 21:33N 01°16' E 103°50'0 0.0
2015-Apr-20 20:30N 01°16' E 103°50'0 0.0
2015-Apr-20 19:33N 01°16' E 103°50'0 0.0
2015-Apr-20 18:33N 01°16' E 103°50'0 0.0
2015-Apr-20 17:33N 01°16' E 103°50'0 0.0
2015-Apr-20 16:30N 01°16' E 103°50'0 0.0
2015-Apr-20 15:30N 01°16' E 103°50'0 0.0
2015-Apr-20 14:33N 01°16' E 103°50'0 0.0
2015-Apr-20 13:33N 01°16' E 103°50'0 0.0
2015-Apr-20 12:33N 01°16' E 103°50'0 0.0
2015-Apr-20 11:33N 01°16' E 103°50'2 1.9
2015-Apr-20 10:33N 01°15' E 103°52'5 5.1
2015-Apr-20 09:33N 01°15' E 103°57'10 9.5
2015-Apr-20 08:32N 01°16' E 104°06'  

Dump ship's entire track history